Аэропорт: Байкал. Улан-Удэ

ICAO: UIUU

METAR:
2022-01-28 09:00:00
UIUU 280900Z 29001MPS 4800 FU NSC M21/M26 Q1031 R26/820550 NOSIG RMK QFE729/0972
METAR:
2022-01-28 08:00:00
TAF UIUU 280800Z 2809/2909 VRB01MPS 4000 FU NSC TEMPO 2809/2906 1400 BR FU